createdAt,value
2022-10-18T00:00:12.601Z,1021.36
2022-10-18T00:01:12.576Z,1021.37
2022-10-18T00:02:12.625Z,1021.39
2022-10-18T00:03:12.552Z,1021.43
2022-10-18T00:04:12.666Z,1021.41
2022-10-18T00:05:12.535Z,1021.38
2022-10-18T00:06:12.531Z,1021.38
2022-10-18T00:07:12.506Z,1021.42
2022-10-18T00:08:12.482Z,1021.41
2022-10-18T00:09:12.498Z,1021.42
2022-10-18T00:10:12.571Z,1021.41
2022-10-18T00:11:12.452Z,1021.43
2022-10-18T00:12:12.468Z,1021.45
2022-10-18T00:13:12.412Z,1021.45
2022-10-18T00:14:12.416Z,1021.52
2022-10-18T00:15:12.393Z,1021.51
2022-10-18T00:16:12.504Z,1021.48
2022-10-18T00:17:12.383Z,1021.50
2022-10-18T00:18:12.354Z,1021.45
2022-10-18T00:19:12.362Z,1021.47
2022-10-18T00:20:12.363Z,1021.40
2022-10-18T00:21:12.305Z,1021.43
2022-10-18T00:22:12.413Z,1021.44
2022-10-18T00:23:12.290Z,1021.43
2022-10-18T00:24:12.317Z,1021.47
2022-10-18T00:25:12.336Z,1021.46
2022-10-18T00:26:12.250Z,1021.48
2022-10-18T00:27:12.226Z,1021.50
2022-10-18T00:28:12.269Z,1021.54
2022-10-18T00:29:12.211Z,1021.54
2022-10-18T00:30:12.188Z,1021.56
2022-10-18T00:31:12.186Z,1021.57
2022-10-18T00:32:12.201Z,1021.56
2022-10-18T00:33:12.285Z,1021.62
2022-10-18T00:34:12.264Z,1021.60
2022-10-18T00:35:12.119Z,1021.57
2022-10-18T00:36:12.125Z,1021.56
2022-10-18T00:37:12.112Z,1021.51
2022-10-18T00:38:12.080Z,1021.53
2022-10-18T00:39:12.075Z,1021.52
2022-10-18T00:40:12.195Z,1021.55
2022-10-18T00:41:12.108Z,1021.59
2022-10-18T00:42:12.097Z,1021.60
2022-10-18T00:43:12.013Z,1021.61
2022-10-18T00:44:12.002Z,1021.64
2022-10-18T00:45:12.018Z,1021.63
2022-10-18T00:46:12.102Z,1021.63
2022-10-18T00:47:11.967Z,1021.64
2022-10-18T00:48:11.976Z,1021.68
2022-10-18T00:49:11.934Z,1021.64
2022-10-18T00:50:11.950Z,1021.64
2022-10-18T00:51:11.906Z,1021.65
2022-10-18T00:52:12.018Z,1021.62
2022-10-18T00:53:11.899Z,1021.66
2022-10-18T00:54:11.880Z,1021.66
2022-10-18T00:55:11.854Z,1021.71
2022-10-18T00:56:11.838Z,1021.71
2022-10-18T00:57:11.841Z,1021.75
2022-10-18T00:58:11.857Z,1021.76
2022-10-18T00:59:11.812Z,1021.73
2022-10-18T01:00:11.805Z,1021.71
2022-10-18T01:01:11.803Z,1021.69
2022-10-18T01:02:11.893Z,1021.70
2022-10-18T01:03:11.740Z,1021.73
2022-10-18T01:04:11.859Z,1021.71
2022-10-18T01:05:11.727Z,1021.70
2022-10-18T01:06:11.724Z,1021.76
2022-10-18T01:07:11.701Z,1021.72
2022-10-18T01:08:11.693Z,1021.70
2022-10-18T01:09:11.670Z,1021.66
2022-10-18T01:10:11.707Z,1021.64
2022-10-18T01:11:11.643Z,1021.62
2022-10-18T01:12:11.643Z,1021.63
2022-10-18T01:13:11.635Z,1021.62
2022-10-18T01:14:11.627Z,1021.61
2022-10-18T01:15:11.593Z,1021.59
2022-10-18T01:16:11.715Z,1021.63
2022-10-18T01:17:11.572Z,1021.65
2022-10-18T01:18:11.550Z,1021.64
2022-10-18T01:19:11.538Z,1021.64
2022-10-18T01:20:11.527Z,1021.59
2022-10-18T01:21:11.496Z,1021.58
2022-10-18T01:22:11.625Z,1021.54
2022-10-18T01:23:11.473Z,1021.53
2022-10-18T01:24:11.467Z,1021.58
2022-10-18T01:25:11.539Z,1021.54
2022-10-18T01:26:11.456Z,1021.54
2022-10-18T01:27:11.417Z,1021.51
2022-10-18T01:28:11.427Z,1021.58
2022-10-18T01:29:11.413Z,1021.53
2022-10-18T01:30:11.388Z,1021.57
2022-10-18T01:31:11.381Z,1021.57
2022-10-18T01:32:11.372Z,1021.53
2022-10-18T01:33:11.348Z,1021.52
2022-10-18T01:34:11.453Z,1021.52
2022-10-18T01:35:11.309Z,1021.49
2022-10-18T01:36:11.371Z,1021.50
2022-10-18T01:37:11.307Z,1021.52
2022-10-18T01:38:11.290Z,1021.49
2022-10-18T01:39:11.277Z,1021.50
2022-10-18T01:40:11.296Z,1021.50
2022-10-18T01:41:14.817Z,1021.50
2022-10-18T01:42:11.270Z,1021.51
2022-10-18T01:43:11.204Z,1021.50
2022-10-18T01:44:11.200Z,1021.55
2022-10-18T01:45:11.229Z,1021.50
2022-10-18T01:46:11.282Z,1021.47
2022-10-18T01:47:11.175Z,1021.45
2022-10-18T01:48:11.178Z,1021.44
2022-10-18T01:49:11.125Z,1021.43
2022-10-18T01:50:11.128Z,1021.42
2022-10-18T01:51:11.106Z,1021.42
2022-10-18T01:52:11.201Z,1021.44
2022-10-18T01:53:11.079Z,1021.44
2022-10-18T01:54:11.082Z,1021.41
2022-10-18T01:55:11.061Z,1021.42
2022-10-18T01:56:11.049Z,1021.41
2022-10-18T01:57:11.020Z,1021.39
2022-10-18T01:58:11.118Z,1021.35
2022-10-18T01:59:11.010Z,1021.40
2022-10-18T02:00:10.992Z,1021.41
2022-10-18T02:02:10.974Z,1021.37
2022-10-18T02:03:10.937Z,1021.40
2022-10-18T02:04:11.072Z,1021.38
2022-10-18T02:05:10.949Z,1021.36
2022-10-18T02:06:10.902Z,1021.37
2022-10-18T02:07:10.896Z,1021.38
2022-10-18T02:08:21.989Z,1021.30
2022-10-18T02:09:11.872Z,1021.33
2022-10-18T02:10:10.896Z,1021.34
2022-10-18T02:11:10.840Z,1021.31
2022-10-18T02:12:10.823Z,1021.29
2022-10-18T02:13:10.818Z,1021.30
2022-10-18T02:14:10.806Z,1021.29
2022-10-18T02:15:10.891Z,1021.31
2022-10-18T02:16:10.763Z,1021.25
2022-10-18T02:17:10.749Z,1021.31
2022-10-18T02:18:10.724Z,1021.29
2022-10-18T02:19:10.728Z,1021.26
2022-10-18T02:20:10.718Z,1021.21
2022-10-18T02:21:10.818Z,1021.25
2022-10-18T02:22:10.689Z,1021.19
2022-10-18T02:23:10.670Z,1021.17
2022-10-18T02:24:10.667Z,1021.15
2022-10-18T02:25:10.680Z,1021.13
2022-10-18T02:26:10.629Z,1021.07
2022-10-18T02:27:10.859Z,1021.09
2022-10-18T02:28:10.665Z,1021.02
2022-10-18T02:29:10.603Z,1021.07
2022-10-18T02:30:10.579Z,1021.08
2022-10-18T02:31:10.573Z,1021.09
2022-10-18T02:32:10.568Z,1021.10
2022-10-18T02:33:10.640Z,1021.17
2022-10-18T02:34:10.535Z,1021.12
2022-10-18T02:35:10.514Z,1021.10
2022-10-18T02:36:10.522Z,1021.08
2022-10-18T02:37:10.484Z,1021.02
2022-10-18T02:38:10.472Z,1021.08
2022-10-18T02:39:10.496Z,1021.11
2022-10-18T02:40:10.455Z,1021.13
2022-10-18T02:41:10.421Z,1021.08
2022-10-18T02:42:10.460Z,1021.10
2022-10-18T02:43:10.393Z,1021.11
2022-10-18T02:44:10.394Z,1021.21
2022-10-18T02:45:10.501Z,1021.18
2022-10-18T02:46:10.369Z,1021.20
2022-10-18T02:47:10.364Z,1021.23
2022-10-18T02:48:10.334Z,1021.20
2022-10-18T02:49:10.385Z,1021.15
2022-10-18T02:50:10.305Z,1021.15
2022-10-18T02:51:10.443Z,1021.17
2022-10-18T02:52:10.289Z,1021.16
2022-10-18T02:53:10.277Z,1021.16
2022-10-18T02:54:10.260Z,1021.13
2022-10-18T02:55:10.253Z,1021.16
2022-10-18T02:56:10.217Z,1021.20
2022-10-18T02:57:10.360Z,1021.17
2022-10-18T02:58:10.197Z,1021.15
2022-10-18T02:59:10.194Z,1021.13
2022-10-18T03:00:10.171Z,1021.16
2022-10-18T03:01:10.236Z,1021.18
2022-10-18T03:02:10.139Z,1021.17
2022-10-18T03:03:10.162Z,1021.14
2022-10-18T03:04:10.123Z,1021.11
2022-10-18T03:05:10.125Z,1021.09
2022-10-18T03:06:10.096Z,1021.10
2022-10-18T03:07:10.081Z,1021.05
2022-10-18T03:08:10.059Z,1021.09
2022-10-18T03:09:10.193Z,1021.11
2022-10-18T03:10:10.023Z,1021.07
2022-10-18T03:11:10.039Z,1021.10
2022-10-18T03:12:10.025Z,1021.05
2022-10-18T03:13:09.993Z,1021.04
2022-10-18T03:14:09.996Z,1021.05
2022-10-18T03:15:10.009Z,1021.05
2022-10-18T03:16:09.966Z,1021.06
2022-10-18T03:17:09.948Z,1021.06
2022-10-18T03:18:09.929Z,1021.08
2022-10-18T03:19:09.906Z,1021.07
2022-10-18T03:20:09.885Z,1021.10
2022-10-18T03:21:10.064Z,1021.12
2022-10-18T03:22:09.865Z,1021.08
2022-10-18T03:23:09.878Z,1021.11
2022-10-18T03:24:09.852Z,1021.10
2022-10-18T03:25:09.847Z,1021.10
2022-10-18T03:26:09.831Z,1021.05
2022-10-18T03:27:09.835Z,1021.08
2022-10-18T03:28:09.813Z,1021.15
2022-10-18T03:29:09.890Z,1021.12
2022-10-18T03:31:40.954Z,1021.18
2022-10-18T03:32:20.052Z,1021.18
2022-10-18T03:33:19.901Z,1021.19
2022-10-18T03:34:19.893Z,1021.18
2022-10-18T03:35:19.870Z,1021.21
2022-10-18T03:36:19.860Z,1021.17
2022-10-18T03:37:19.854Z,1021.18
2022-10-18T03:38:19.861Z,1021.15
2022-10-18T03:39:19.835Z,1021.11
2022-10-18T03:40:19.874Z,1021.14
2022-10-18T03:41:19.792Z,1021.14
2022-10-18T03:42:19.772Z,1021.15
2022-10-18T03:43:20.475Z,1021.18
2022-10-18T03:44:19.797Z,1021.22
2022-10-18T03:45:19.752Z,1021.22
2022-10-18T03:46:19.766Z,1021.22
2022-10-18T03:47:19.726Z,1021.25
2022-10-18T03:48:19.724Z,1021.24
2022-10-18T03:49:19.786Z,1021.27
2022-10-18T03:50:19.786Z,1021.25
2022-10-18T03:51:19.686Z,1021.22
2022-10-18T03:52:19.671Z,1021.20
2022-10-18T03:53:19.645Z,1021.17
2022-10-18T03:54:19.636Z,1021.16
2022-10-18T03:55:19.607Z,1021.20
2022-10-18T03:56:19.640Z,1021.14
2022-10-18T03:57:19.614Z,1021.17
2022-10-18T03:58:19.624Z,1021.17
2022-10-18T03:59:19.562Z,1021.17
2022-10-18T04:00:19.552Z,1021.15
2022-10-18T04:01:19.597Z,1021.11
2022-10-18T04:02:19.652Z,1021.11
2022-10-18T04:03:19.518Z,1021.13
2022-10-18T04:04:19.504Z,1021.16
2022-10-18T04:05:19.489Z,1021.18
2022-10-18T04:06:19.472Z,1021.17
2022-10-18T04:07:19.444Z,1021.19
2022-10-18T04:08:19.551Z,1021.19
2022-10-18T04:09:19.453Z,1021.20
2022-10-18T04:10:19.409Z,1021.20
2022-10-18T04:11:19.405Z,1021.24
2022-10-18T04:12:19.406Z,1021.21
2022-10-18T04:13:19.364Z,1021.17
2022-10-18T04:14:19.458Z,1021.17
2022-10-18T04:15:19.351Z,1021.17
2022-10-18T04:16:19.337Z,1021.22
2022-10-18T04:17:19.308Z,1021.20
2022-10-18T04:18:19.313Z,1021.17
2022-10-18T04:19:19.283Z,1021.21
2022-10-18T04:20:19.291Z,1021.17
2022-10-18T04:21:19.278Z,1021.19
2022-10-18T04:22:19.246Z,1021.17
2022-10-18T04:23:19.247Z,1021.18
2022-10-18T04:24:19.229Z,1021.15
2022-10-18T04:25:19.212Z,1021.14
2022-10-18T04:26:19.323Z,1021.15
2022-10-18T04:27:19.176Z,1021.20
2022-10-18T04:28:19.171Z,1021.22
2022-10-18T04:29:19.173Z,1021.23
2022-10-18T04:30:19.150Z,1021.22
2022-10-18T04:31:19.152Z,1021.20
2022-10-18T04:32:19.154Z,1021.18
2022-10-18T04:33:19.100Z,1021.19
2022-10-18T04:34:19.100Z,1021.11
2022-10-18T04:35:19.086Z,1021.13
2022-10-18T04:36:19.071Z,1021.08
2022-10-18T04:37:19.055Z,1021.03
2022-10-18T04:38:19.041Z,1021.06
2022-10-18T04:39:19.027Z,1021.06
2022-10-18T04:40:19.015Z,1021.09
2022-10-18T04:41:18.983Z,1021.12
2022-10-18T04:42:18.976Z,1021.17
2022-10-18T04:43:18.961Z,1021.13
2022-10-18T04:44:19.059Z,1021.15
2022-10-18T04:45:18.945Z,1021.15
2022-10-18T04:46:18.928Z,1021.14
2022-10-18T04:47:18.906Z,1021.10
2022-10-18T04:48:18.885Z,1021.12
2022-10-18T04:49:18.910Z,1021.16
2022-10-18T04:50:18.885Z,1021.13
2022-10-18T04:51:18.884Z,1021.14
2022-10-18T04:52:18.851Z,1021.11
2022-10-18T04:53:18.826Z,1021.18
2022-10-18T04:54:18.830Z,1021.15
2022-10-18T04:55:18.795Z,1021.15
2022-10-18T04:56:18.808Z,1021.17
2022-10-18T04:57:18.792Z,1021.18
2022-10-18T04:58:18.779Z,1021.18
2022-10-18T04:59:18.751Z,1021.17
2022-10-18T05:00:18.833Z,1021.18
2022-10-18T05:01:18.809Z,1021.18
2022-10-18T05:02:18.731Z,1021.12
2022-10-18T05:03:18.710Z,1021.18
2022-10-18T05:04:18.684Z,1021.18
2022-10-18T05:05:18.659Z,1021.19
2022-10-18T05:06:18.670Z,1021.18
2022-10-18T05:07:18.631Z,1021.20
2022-10-18T05:08:18.720Z,1021.17
2022-10-18T05:09:18.652Z,1021.24
2022-10-18T05:10:18.605Z,1021.29
2022-10-18T05:11:18.604Z,1021.31
2022-10-18T05:12:18.584Z,1021.36
2022-10-18T05:13:18.555Z,1021.35
2022-10-18T05:14:18.580Z,1021.30
2022-10-18T05:15:18.523Z,1021.33
2022-10-18T05:16:18.505Z,1021.31
2022-10-18T05:17:18.520Z,1021.27
2022-10-18T05:18:18.499Z,1021.24
2022-10-18T05:19:18.479Z,1021.23
2022-10-18T05:20:18.483Z,1021.23
2022-10-18T05:21:18.451Z,1021.17
2022-10-18T05:22:18.425Z,1021.16
2022-10-18T05:23:18.431Z,1021.20
2022-10-18T05:24:18.429Z,1021.16
2022-10-18T05:25:18.398Z,1021.14
2022-10-18T05:26:18.506Z,1021.17
2022-10-18T05:27:18.383Z,1021.20
2022-10-18T05:28:38.754Z,1021.16
2022-10-18T05:29:19.412Z,1021.17
2022-10-18T05:30:18.308Z,1021.22
2022-10-18T05:31:18.321Z,1021.22
2022-10-18T05:32:18.460Z,1021.25
2022-10-18T05:33:18.271Z,1021.27
2022-10-18T05:34:18.276Z,1021.29
2022-10-18T05:35:18.252Z,1021.27
2022-10-18T05:36:18.240Z,1021.28
2022-10-18T05:37:18.247Z,1021.29
2022-10-18T05:38:18.324Z,1021.26
2022-10-18T05:39:18.206Z,1021.24
2022-10-18T05:40:18.188Z,1021.24
2022-10-18T05:41:18.178Z,1021.23
2022-10-18T05:42:18.166Z,1021.23
2022-10-18T05:43:18.194Z,1021.27
2022-10-18T05:44:18.227Z,1021.28
2022-10-18T05:45:18.126Z,1021.27
2022-10-18T05:46:18.111Z,1021.22
2022-10-18T05:47:18.099Z,1021.22
2022-10-18T05:48:18.090Z,1021.21
2022-10-18T05:49:18.072Z,1021.18
2022-10-18T05:50:18.076Z,1021.19
2022-10-18T05:51:18.049Z,1021.20
2022-10-18T05:52:18.032Z,1021.25
2022-10-18T05:53:35.785Z,1021.23
2022-10-18T05:54:19.039Z,1021.26
2022-10-18T05:55:17.972Z,1021.22
2022-10-18T05:56:18.095Z,1021.21
2022-10-18T05:57:17.969Z,1021.22
2022-10-18T05:58:17.937Z,1021.21
2022-10-18T05:59:17.957Z,1021.23
2022-10-18T06:00:17.920Z,1021.23
2022-10-18T06:01:17.900Z,1021.25
2022-10-18T06:02:18.036Z,1021.29
2022-10-18T06:03:17.865Z,1021.29
2022-10-18T06:04:17.842Z,1021.31
2022-10-18T06:05:17.855Z,1021.27
2022-10-18T06:06:17.845Z,1021.28
2022-10-18T06:07:17.824Z,1021.33
2022-10-18T06:08:17.841Z,1021.32
2022-10-18T06:09:17.810Z,1021.37
2022-10-18T06:10:17.769Z,1021.34
2022-10-18T06:11:17.768Z,1021.36
2022-10-18T06:12:17.765Z,1021.38
2022-10-18T06:13:17.725Z,1021.40
2022-10-18T06:14:17.839Z,1021.42
2022-10-18T06:15:17.697Z,1021.40
2022-10-18T06:16:17.751Z,1021.42
2022-10-18T06:17:17.705Z,1021.43
2022-10-18T06:18:17.695Z,1021.51
2022-10-18T06:19:17.661Z,1021.48
2022-10-18T06:20:17.788Z,1021.51
2022-10-18T06:21:17.625Z,1021.47
2022-10-18T06:22:17.601Z,1021.50
2022-10-18T06:23:17.614Z,1021.53
2022-10-18T06:24:17.594Z,1021.52
2022-10-18T06:25:17.573Z,1021.52
2022-10-18T06:26:17.682Z,1021.50
2022-10-18T06:27:17.540Z,1021.56
2022-10-18T06:28:17.520Z,1021.56
2022-10-18T06:29:17.534Z,1021.56
2022-10-18T06:30:17.491Z,1021.58
2022-10-18T06:31:17.494Z,1021.55
2022-10-18T06:32:17.606Z,1021.61
2022-10-18T06:33:17.463Z,1021.61
2022-10-18T06:34:17.452Z,1021.59
2022-10-18T06:35:17.435Z,1021.58
2022-10-18T06:36:17.415Z,1021.60
2022-10-18T06:37:17.418Z,1021.65
2022-10-18T06:38:17.503Z,1021.65
2022-10-18T06:39:17.403Z,1021.67
2022-10-18T06:40:17.367Z,1021.73
2022-10-18T06:41:17.349Z,1021.67
2022-10-18T06:42:19.140Z,1021.70
2022-10-18T06:43:21.120Z,1021.68
2022-10-18T06:44:17.419Z,1021.65
2022-10-18T06:45:17.297Z,1021.68
2022-10-18T06:46:17.286Z,1021.70
2022-10-18T06:47:17.291Z,1021.74
2022-10-18T06:48:17.293Z,1021.73
2022-10-18T06:49:19.164Z,1021.76
2022-10-18T06:50:17.266Z,1021.75
2022-10-18T06:51:17.209Z,1021.79
2022-10-18T06:52:17.197Z,1021.82
2022-10-18T06:53:17.182Z,1021.84
2022-10-18T06:54:18.793Z,1021.89
2022-10-18T06:55:17.143Z,1021.83
2022-10-18T06:56:17.269Z,1021.84
2022-10-18T06:57:17.148Z,1021.85
2022-10-18T06:58:17.128Z,1021.91
2022-10-18T06:59:17.116Z,1021.92
2022-10-18T07:00:17.101Z,1021.95
2022-10-18T07:01:17.102Z,1021.93
2022-10-18T07:02:17.196Z,1021.92
2022-10-18T07:03:17.041Z,1021.91
2022-10-18T07:04:17.035Z,1021.93
2022-10-18T07:05:17.030Z,1021.87
2022-10-18T07:06:16.996Z,1021.88
2022-10-18T07:07:17.009Z,1021.88
2022-10-18T07:08:17.104Z,1021.89
2022-10-18T07:09:16.974Z,1021.88
2022-10-18T07:10:16.944Z,1021.90
2022-10-18T07:11:16.941Z,1021.87
2022-10-18T07:12:16.943Z,1021.90
2022-10-18T07:13:33.220Z,1021.94
2022-10-18T07:14:17.971Z,1021.96
2022-10-18T07:15:16.879Z,1021.96
2022-10-18T07:16:18.485Z,1021.93
2022-10-18T07:17:16.884Z,1021.97
2022-10-18T07:18:16.857Z,1021.94
2022-10-18T07:19:16.834Z,1021.95
2022-10-18T07:20:16.851Z,1021.95
2022-10-18T07:21:16.789Z,1021.99
2022-10-18T07:22:16.793Z,1022.01
2022-10-18T07:23:16.777Z,1022.01
2022-10-18T07:24:16.759Z,1022.00
2022-10-18T07:25:16.755Z,1022.01
2022-10-18T07:26:16.851Z,1022.05
2022-10-18T07:27:16.709Z,1022.05
2022-10-18T07:28:16.707Z,1022.03
2022-10-18T07:29:16.696Z,1022.02
2022-10-18T07:30:16.701Z,1022.00
2022-10-18T07:31:16.673Z,1021.99
2022-10-18T07:32:16.859Z,1022.02
2022-10-18T07:33:16.638Z,1022.02
2022-10-18T07:34:16.634Z,1022.07
2022-10-18T07:35:16.597Z,1022.09
2022-10-18T07:36:16.608Z,1022.02
2022-10-18T07:37:16.594Z,1022.10
2022-10-18T07:38:16.684Z,1022.11
2022-10-18T07:39:18.669Z,1022.14
2022-10-18T07:40:16.776Z,1022.14
2022-10-18T07:41:16.774Z,1022.10
2022-10-18T07:42:16.843Z,1022.13
2022-10-18T07:43:16.747Z,1022.13
2022-10-18T07:44:16.763Z,1022.12
2022-10-18T07:45:16.716Z,1022.15
2022-10-18T07:46:16.458Z,1022.17
2022-10-18T07:47:16.462Z,1022.17
2022-10-18T07:48:16.457Z,1022.23
2022-10-18T07:49:16.411Z,1022.21
2022-10-18T07:50:16.543Z,1022.24
2022-10-18T07:51:16.411Z,1022.26
2022-10-18T07:52:16.390Z,1022.23
2022-10-18T07:53:16.374Z,1022.23
2022-10-18T07:54:16.350Z,1022.23
2022-10-18T07:55:16.362Z,1022.25
2022-10-18T07:56:16.715Z,1022.24
2022-10-18T07:57:16.301Z,1022.24
2022-10-18T07:58:16.303Z,1022.28
2022-10-18T07:59:16.287Z,1022.29
2022-10-18T08:00:16.286Z,1022.31
2022-10-18T08:01:16.319Z,1022.27
2022-10-18T08:02:16.277Z,1022.25
2022-10-18T08:03:16.223Z,1022.24
2022-10-18T08:04:16.650Z,1022.26
2022-10-18T08:05:16.212Z,1022.27
2022-10-18T08:06:16.183Z,1022.28
2022-10-18T08:07:16.180Z,1022.36
2022-10-18T08:08:16.279Z,1022.39
2022-10-18T08:09:16.165Z,1022.40
2022-10-18T08:10:16.148Z,1022.37
2022-10-18T08:11:16.127Z,1022.36
2022-10-18T08:12:16.100Z,1022.37
2022-10-18T08:13:16.102Z,1022.34
2022-10-18T08:14:16.122Z,1022.34
2022-10-18T08:15:16.058Z,1022.34
2022-10-18T08:16:16.057Z,1022.36
2022-10-18T08:17:16.054Z,1022.43
2022-10-18T08:18:16.033Z,1022.45
2022-10-18T08:19:16.022Z,1022.46
2022-10-18T08:20:29.738Z,1022.51
2022-10-18T08:21:16.978Z,1022.48
2022-10-18T08:22:16.000Z,1022.48
2022-10-18T08:23:15.961Z,1022.54
2022-10-18T08:24:15.947Z,1022.55
2022-10-18T08:25:15.965Z,1022.48
2022-10-18T08:26:16.040Z,1022.55
2022-10-18T08:27:15.920Z,1022.50
2022-10-18T08:28:15.914Z,1022.52
2022-10-18T08:29:23.967Z,1022.51
2022-10-18T08:30:16.875Z,1022.51
2022-10-18T08:31:15.866Z,1022.54
2022-10-18T08:32:15.885Z,1022.58
2022-10-18T08:33:15.823Z,1022.62
2022-10-18T08:34:19.545Z,1022.66
2022-10-18T08:35:15.794Z,1022.62
2022-10-18T08:36:15.783Z,1022.58
2022-10-18T08:37:15.779Z,1022.58
2022-10-18T08:38:18.175Z,1022.54
2022-10-18T08:39:15.748Z,1022.59
2022-10-18T08:40:15.752Z,1022.55
2022-10-18T08:41:15.698Z,1022.62
2022-10-18T08:42:15.718Z,1022.60
2022-10-18T08:43:20.695Z,1022.62
2022-10-18T08:44:16.795Z,1022.60
2022-10-18T08:45:30.271Z,1022.55
2022-10-18T08:46:16.639Z,1022.58
2022-10-18T08:47:15.651Z,1022.58
2022-10-18T08:48:15.633Z,1022.62
2022-10-18T08:49:15.599Z,1022.67
2022-10-18T08:50:15.737Z,1022.64
2022-10-18T08:51:15.570Z,1022.71
2022-10-18T08:52:15.562Z,1022.68
2022-10-18T08:53:15.554Z,1022.61
2022-10-18T08:54:15.544Z,1022.61
2022-10-18T08:55:15.534Z,1022.64
2022-10-18T08:56:15.652Z,1022.63
2022-10-18T08:57:15.504Z,1022.65
2022-10-18T08:58:15.504Z,1022.65
2022-10-18T08:59:15.505Z,1022.66
2022-10-18T09:00:15.454Z,1022.68
2022-10-18T09:01:15.450Z,1022.72
2022-10-18T09:02:15.567Z,1022.72
2022-10-18T09:03:15.481Z,1022.70
2022-10-18T09:04:15.406Z,1022.78
2022-10-18T09:05:15.397Z,1022.79
2022-10-18T09:06:17.557Z,1022.85
2022-10-18T09:07:15.368Z,1022.92
2022-10-18T09:08:15.471Z,1022.86
2022-10-18T09:09:15.340Z,1022.84
2022-10-18T09:10:15.354Z,1022.84
2022-10-18T09:11:15.312Z,1022.84
2022-10-18T09:12:15.303Z,1022.81
2022-10-18T09:13:15.292Z,1022.80
2022-10-18T09:14:15.331Z,1022.78
2022-10-18T09:15:15.261Z,1022.81
2022-10-18T09:16:15.358Z,1022.85
2022-10-18T09:17:16.256Z,1022.86
2022-10-18T09:18:15.211Z,1022.87
2022-10-18T09:19:15.207Z,1022.88
2022-10-18T09:20:15.325Z,1022.84
2022-10-18T09:21:15.190Z,1022.78
2022-10-18T09:22:15.189Z,1022.77
2022-10-18T09:23:15.143Z,1022.78
2022-10-18T09:24:15.152Z,1022.82
2022-10-18T09:25:15.136Z,1022.84
2022-10-18T09:26:15.235Z,1022.85
2022-10-18T09:27:15.108Z,1022.78
2022-10-18T09:28:15.101Z,1022.74
2022-10-18T09:29:15.134Z,1022.76
2022-10-18T09:30:15.081Z,1022.73
2022-10-18T09:31:15.037Z,1022.76
2022-10-18T09:32:15.137Z,1022.74
2022-10-18T09:33:15.024Z,1022.77
2022-10-18T09:34:15.018Z,1022.84
2022-10-18T09:35:14.987Z,1022.90
2022-10-18T09:36:14.977Z,1022.91
2022-10-18T09:37:14.986Z,1022.91
2022-10-18T09:38:15.124Z,1022.82
2022-10-18T09:39:14.934Z,1022.84
2022-10-18T09:40:18.056Z,1022.86
2022-10-18T09:41:14.899Z,1022.91
2022-10-18T09:42:14.893Z,1022.93
2022-10-18T09:43:14.871Z,1022.94
2022-10-18T09:44:15.025Z,1022.96
2022-10-18T09:45:14.856Z,1022.95
2022-10-18T09:46:14.842Z,1022.93
2022-10-18T09:47:16.927Z,1022.86
2022-10-18T09:48:14.838Z,1022.91
2022-10-18T09:49:16.345Z,1022.92
2022-10-18T09:50:14.846Z,1022.93
2022-10-18T09:51:14.776Z,1022.91
2022-10-18T09:52:14.785Z,1022.86
2022-10-18T09:53:14.751Z,1022.88
2022-10-18T09:54:14.745Z,1022.86
2022-10-18T09:55:14.738Z,1022.85
2022-10-18T09:56:14.758Z,1022.87
2022-10-18T09:57:14.698Z,1022.84
2022-10-18T09:58:14.681Z,1022.77
2022-10-18T09:59:14.667Z,1022.75
2022-10-18T10:00:14.660Z,1022.76
2022-10-18T10:01:14.681Z,1022.74
2022-10-18T10:02:14.743Z,1022.76
2022-10-18T10:03:14.663Z,1022.75
2022-10-18T10:04:14.611Z,1022.72
2022-10-18T10:05:14.606Z,1022.71
2022-10-18T10:06:14.583Z,1022.66
2022-10-18T10:07:14.575Z,1022.71
2022-10-18T10:08:14.666Z,1022.74
2022-10-18T10:09:14.523Z,1022.78
2022-10-18T10:10:14.597Z,1022.78
2022-10-18T10:11:14.503Z,1022.73
2022-10-18T10:12:14.494Z,1022.73
2022-10-18T10:13:14.515Z,1022.71
2022-10-18T10:15:14.446Z,1022.69
2022-10-18T10:16:14.442Z,1022.70
2022-10-18T10:17:14.445Z,1022.66
2022-10-18T10:18:14.408Z,1022.69
2022-10-18T10:19:14.396Z,1022.76
2022-10-18T10:20:14.534Z,1022.78
2022-10-18T10:21:14.379Z,1022.79
2022-10-18T10:22:14.368Z,1022.82
2022-10-18T10:23:14.405Z,1022.84
2022-10-18T10:24:14.328Z,1022.83
2022-10-18T10:25:14.311Z,1022.84
2022-10-18T10:26:14.409Z,1022.87
2022-10-18T10:27:14.287Z,1022.85
2022-10-18T10:28:14.271Z,1022.85
2022-10-18T10:29:17.497Z,1022.91
2022-10-18T10:30:15.281Z,1022.87
2022-10-18T10:31:14.227Z,1022.80
2022-10-18T10:32:14.343Z,1022.77
2022-10-18T10:33:14.214Z,1022.75
2022-10-18T10:34:14.210Z,1022.75
2022-10-18T10:35:22.767Z,1022.81
2022-10-18T10:36:15.174Z,1022.83
2022-10-18T10:37:14.141Z,1022.78
2022-10-18T10:38:14.201Z,1022.77
2022-10-18T10:39:14.137Z,1022.73
2022-10-18T10:40:18.403Z,1022.63
2022-10-18T10:41:15.084Z,1022.64
2022-10-18T10:42:14.107Z,1022.63
2022-10-18T10:43:33.027Z,1022.69
2022-10-18T10:44:15.212Z,1022.74
2022-10-18T10:45:14.050Z,1022.74
2022-10-18T10:46:14.046Z,1022.81
2022-10-18T10:47:14.008Z,1022.74
2022-10-18T10:48:14.052Z,1022.73
2022-10-18T10:49:38.622Z,1022.72
2022-10-18T10:50:15.097Z,1022.71
2022-10-18T10:51:13.959Z,1022.70
2022-10-18T10:52:25.941Z,1022.75
2022-10-18T10:53:15.067Z,1022.74
2022-10-18T10:54:13.914Z,1022.73
2022-10-18T10:56:16.048Z,1022.79
2022-10-18T10:57:13.889Z,1022.73
2022-10-18T10:58:13.854Z,1022.68
2022-10-18T10:59:13.917Z,1022.67
2022-10-18T11:00:13.846Z,1022.67
2022-10-18T11:01:13.827Z,1022.66
2022-10-18T11:02:13.939Z,1022.72
2022-10-18T11:03:27.829Z,1022.66
2022-10-18T11:04:14.822Z,1022.77
2022-10-18T11:05:13.798Z,1022.83
2022-10-18T11:06:13.752Z,1022.77
2022-10-18T11:07:13.779Z,1022.76
2022-10-18T11:08:13.871Z,1022.72
2022-10-18T11:09:13.713Z,1022.76
2022-10-18T11:10:13.697Z,1022.76
2022-10-18T11:11:13.705Z,1022.82
2022-10-18T11:12:13.687Z,1022.84
2022-10-18T11:13:13.660Z,1022.82
2022-10-18T11:14:25.216Z,1022.84
2022-10-18T11:15:14.652Z,1022.88
2022-10-18T11:16:13.640Z,1022.88
2022-10-18T11:17:13.624Z,1022.84
2022-10-18T11:18:13.594Z,1022.79
2022-10-18T11:19:13.594Z,1022.77
2022-10-18T11:20:13.594Z,1022.83
2022-10-18T11:21:13.554Z,1022.75
2022-10-18T11:22:13.550Z,1022.82
2022-10-18T11:23:13.504Z,1022.74
2022-10-18T11:24:13.510Z,1022.74
2022-10-18T11:25:13.516Z,1022.76
2022-10-18T11:26:13.525Z,1022.71
2022-10-18T11:27:13.476Z,1022.76
2022-10-18T11:28:13.457Z,1022.75
2022-10-18T11:29:13.457Z,1022.77
2022-10-18T11:30:13.425Z,1022.71
2022-10-18T11:31:13.428Z,1022.69
2022-10-18T11:32:13.461Z,1022.67
2022-10-18T11:33:13.386Z,1022.69
2022-10-18T11:34:13.379Z,1022.67
2022-10-18T11:35:13.358Z,1022.66
2022-10-18T11:36:13.366Z,1022.64
2022-10-18T11:37:27.656Z,1022.75
2022-10-18T11:38:14.432Z,1022.77
2022-10-18T11:39:13.311Z,1022.79
2022-10-18T11:40:13.293Z,1022.67
2022-10-18T11:41:13.299Z,1022.64
2022-10-18T11:42:13.259Z,1022.63
2022-10-18T11:43:13.272Z,1022.64
2022-10-18T11:44:13.274Z,1022.68
2022-10-18T11:45:13.223Z,1022.69
2022-10-18T11:46:13.220Z,1022.75
2022-10-18T11:47:13.193Z,1022.70
2022-10-18T11:48:13.185Z,1022.70
2022-10-18T11:49:13.186Z,1022.65
2022-10-18T11:50:13.182Z,1022.69
2022-10-18T11:51:13.157Z,1022.64
2022-10-18T11:52:13.180Z,1022.67
2022-10-18T11:53:13.122Z,1022.62
2022-10-18T11:54:13.115Z,1022.64
2022-10-18T11:55:13.104Z,1022.61
2022-10-18T11:56:13.195Z,1022.59
2022-10-18T11:57:13.079Z,1022.66
2022-10-18T11:58:13.050Z,1022.69
2022-10-18T11:59:13.056Z,1022.65
2022-10-18T12:00:13.040Z,1022.66
2022-10-18T12:01:13.025Z,1022.58
2022-10-18T12:02:13.156Z,1022.61
2022-10-18T12:03:12.982Z,1022.60
2022-10-18T12:04:12.969Z,1022.60
2022-10-18T12:05:23.181Z,1022.60
2022-10-18T12:06:13.931Z,1022.56
2022-10-18T12:07:12.955Z,1022.60
2022-10-18T12:08:12.943Z,1022.60
2022-10-18T12:09:12.901Z,1022.59